Time;durP1;ratioP1;P1;durP2;ratioP2;P2;SDS_P1;SDS_P2;PMS_P1;PMS_P2;Temp;Humidity;BMP_temperature;BMP_pressure;BME280_temperature;BME280_humidity;BME280_pressure;Samples;Min_cycle;Max_cycle;Signal;HPM_P1;HPM_P2
2022/01/10 00:02:27;;;;;;;56.25;30.83;;;22.80;34.60;;;;;;6212376;28;83493;-66
2022/01/10 00:05:27;;;;;;;56.60;31.63;;;22.70;34.90;;;;;;6214473;28;83264;-66
2022/01/10 00:08:28;;;;;;;59.28;33.30;;;22.70;34.40;;;;;;6219521;28;85192;-66
2022/01/10 00:11:28;;;;;;;61.90;33.17;;;22.70;35.50;;;;;;6217597;28;83598;-66
2022/01/10 00:14:29;;;;;;;56.10;32.13;;;22.70;34.70;;;;;;6223816;27;84435;-66
2022/01/10 00:17:29;;;;;;;57.70;32.35;;;22.70;34.20;;;;;;6219008;28;84113;-66
2022/01/10 00:20:30;;;;;;;61.47;33.20;;;22.70;34.20;;;;;;6221484;28;83949;-65
2022/01/10 00:23:30;;;;;;;64.40;36.58;;;22.80;34.10;;;;;;6225235;28;83110;-65
2022/01/10 00:26:31;;;;;;;60.80;34.40;;;22.70;34.00;;;;;;6230684;27;90875;-65
2022/01/10 00:29:31;;;;;;;62.22;35.95;;;22.70;34.10;;;;;;6228916;28;83659;-66
2022/01/10 00:32:32;;;;;;;63.08;35.13;;;22.70;33.80;;;;;;6221270;27;84594;-65
2022/01/10 00:35:32;;;;;;;58.75;34.38;;;22.70;33.90;;;;;;6228744;28;84108;-66
2022/01/10 00:38:33;;;;;;;64.88;34.70;;;22.70;33.90;;;;;;6233365;28;82936;-65
2022/01/10 00:41:34;;;;;;;66.28;36.00;;;22.80;34.20;;;;;;6230985;28;83161;-65
2022/01/10 00:44:39;;;;;;;58.92;33.95;;;22.70;34.00;;;;;;6228777;28;83279;-65
2022/01/10 00:47:41;;;;;;;65.15;34.85;;;22.70;33.80;;;;;;6237371;27;83513;-64
2022/01/10 00:50:42;;;;;;;61.22;34.45;;;22.70;34.10;;;;;;6216865;28;83183;-64
2022/01/10 00:53:44;;;;;;;59.22;34.13;;;22.70;33.90;;;;;;6226679;28;84173;-65
2022/01/10 00:56:45;;;;;;;68.28;36.35;;;22.70;34.00;;;;;;6226000;28;86168;-65
2022/01/10 00:59:46;;;;;;;61.95;34.72;;;22.70;33.60;;;;;;6221058;28;83432;-65
2022/01/10 01:02:47;;;;;;;63.25;35.78;;;22.70;33.70;;;;;;6229077;28;83881;-66
2022/01/10 01:05:48;;;;;;;60.30;35.08;;;22.70;33.60;;;;;;6228619;28;83783;-67
2022/01/10 01:08:49;;;;;;;64.15;35.80;;;22.70;33.60;;;;;;6231030;27;83104;-67
2022/01/10 01:15:07;;;;;;;60.80;34.50;;;22.60;33.60;;;;;;6217468;28;85936;-67
2022/01/10 01:24:27;;;;;;;67.93;37.53;;;22.60;33.60;;;;;;6223888;28;83062;-66
2022/01/10 01:27:28;;;;;;;59.15;34.63;;;22.60;33.50;;;;;;6213481;28;84503;-67
2022/01/10 01:30:28;;;;;;;60.53;34.38;;;22.60;33.50;;;;;;6214871;28;83079;-67
2022/01/10 01:33:29;;;;;;;60.17;34.22;;;22.60;33.40;;;;;;6228142;28;83251;-67
2022/01/10 01:36:31;;;;;;;58.88;34.53;;;22.60;33.50;;;;;;6227866;28;83649;-66
2022/01/10 01:39:32;;;;;;;60.88;34.63;;;22.60;33.40;;;;;;6212971;28;84214;-66
2022/01/10 01:42:38;;;;;;;59.70;32.53;;;22.60;33.40;;;;;;6254942;27;85524;-67
2022/01/10 01:45:40;;;;;;;60.15;33.08;;;22.60;33.40;;;;;;6210397;28;84195;-66
2022/01/10 01:48:41;;;;;;;56.75;31.83;;;22.50;33.30;;;;;;6217790;28;85794;-66
2022/01/10 01:51:42;;;;;;;56.88;33.78;;;22.50;33.30;;;;;;6226368;28;84607;-66
2022/01/10 01:54:43;;;;;;;58.40;31.73;;;22.50;33.20;;;;;;6212420;28;84896;-66
2022/01/10 01:57:43;;;;;;;56.78;32.38;;;22.50;33.20;;;;;;6224650;28;85791;-66
2022/01/10 02:00:44;;;;;;;58.53;33.70;;;22.50;33.20;;;;;;6215415;28;85816;-65
2022/01/10 02:03:45;;;;;;;57.85;33.92;;;22.50;33.10;;;;;;6221842;28;84039;-66
2022/01/10 02:06:47;;;;;;;56.95;33.38;;;22.50;33.00;;;;;;6219193;28;85569;-65
2022/01/10 02:09:48;;;;;;;55.55;31.42;;;22.50;32.90;;;;;;6225112;28;84149;-66
2022/01/10 02:12:48;;;;;;;59.42;32.47;;;22.50;33.20;;;;;;6226453;28;86121;-66
2022/01/10 02:16:02;;;;;;;58.80;33.90;;;22.50;33.50;;;;;;6223818;28;85442;-67
2022/01/10 02:19:08;;;;;;;58.88;33.35;;;22.50;33.10;;;;;;6219290;28;85843;-67
2022/01/10 02:22:09;;;;;;;52.03;30.20;;;22.50;33.00;;;;;;6240658;28;85224;-66
2022/01/10 02:25:21;;;;;;;56.83;30.85;;;22.50;33.10;;;;;;6224759;28;85243;-66
2022/01/10 02:28:24;;;;;;;59.05;32.60;;;22.50;32.90;;;;;;6227916;28;85954;-67
2022/01/10 02:31:24;;;;;;;53.38;31.20;;;22.50;32.80;;;;;;6208409;28;86053;-67
2022/01/10 02:34:26;;;;;;;57.60;32.78;;;22.50;33.10;;;;;;6226667;28;83908;-67
2022/01/10 02:37:26;;;;;;;54.95;31.40;;;22.50;32.80;;;;;;6210655;28;87672;-68
2022/01/10 02:40:29;;;;;;;53.25;31.60;;;22.50;33.00;;;;;;6225784;28;84520;-67
2022/01/10 02:43:29;;;;;;;53.00;31.45;;;22.50;33.20;;;;;;6226440;28;85953;-67
2022/01/10 02:46:30;;;;;;;50.15;30.48;;;22.50;33.10;;;;;;6212863;28;85662;-67
2022/01/10 02:49:30;;;;;;;53.67;30.77;;;22.50;32.80;;;;;;6213125;28;83514;-67
2022/01/10 02:52:31;;;;;;;57.28;31.40;;;22.50;32.80;;;;;;6211665;28;86206;-67
2022/01/10 02:55:32;;;;;;;58.08;33.08;;;22.50;32.70;;;;;;6224209;28;82932;-67
2022/01/10 02:58:33;;;;;;;52.20;30.67;;;22.50;32.70;;;;;;6217280;28;85447;-67
2022/01/10 03:01:34;;;;;;;56.25;31.13;;;22.40;32.60;;;;;;6219960;27;84697;-67
2022/01/10 03:04:34;;;;;;;52.65;29.98;;;22.40;32.70;;;;;;6232860;28;83211;-67
2022/01/10 03:07:35;;;;;;;52.47;29.40;;;22.50;32.70;;;;;;6226758;28;85543;-67
2022/01/10 03:10:36;;;;;;;45.58;27.10;;;22.40;33.70;;;;;;6230532;28;82895;-66
2022/01/10 03:13:36;;;;;;;52.42;29.08;;;22.50;33.40;;;;;;6224509;28;84002;-67
2022/01/10 03:16:37;;;;;;;56.63;32.25;;;22.50;33.20;;;;;;6232184;27;85485;-68
2022/01/10 03:19:37;;;;;;;50.08;30.85;;;22.50;32.60;;;;;;6196796;27;84608;-68
2022/01/10 03:22:38;;;;;;;48.58;28.92;;;22.50;32.10;;;;;;6240518;28;84388;-67
2022/01/10 03:25:38;;;;;;;49.60;29.30;;;22.60;32.00;;;;;;6229679;28;85905;-68
2022/01/10 03:28:40;;;;;;;58.70;31.67;;;22.60;31.50;;;;;;6228090;28;86407;-67
2022/01/10 03:31:41;;;;;;;54.05;30.90;;;22.70;31.50;;;;;;6229933;27;85693;-66
2022/01/10 03:34:42;;;;;;;57.47;32.40;;;22.70;31.50;;;;;;6248048;27;85319;-66
2022/01/10 03:37:43;;;;;;;53.63;29.67;;;22.70;31.50;;;;;;6229923;28;86116;-66
2022/01/10 03:40:43;;;;;;;54.20;30.60;;;22.80;31.20;;;;;;6218523;28;85524;-66
2022/01/10 03:43:49;;;;;;;53.92;32.17;;;22.80;31.10;;;;;;6232265;27;84077;-66
2022/01/10 03:46:50;;;;;;;59.40;33.22;;;22.90;30.90;;;;;;6230449;28;85630;-66
2022/01/10 03:49:51;;;;;;;50.22;30.48;;;22.90;30.70;;;;;;6224356;28;85760;-66
2022/01/10 03:52:52;;;;;;;58.42;31.95;;;22.90;30.50;;;;;;6223677;28;85369;-66
2022/01/10 03:55:53;;;;;;;54.15;31.55;;;22.90;30.50;;;;;;6230543;27;84941;-66
2022/01/10 03:58:54;;;;;;;61.13;34.08;;;23.00;30.60;;;;;;6219815;28;83503;-66
2022/01/10 04:01:56;;;;;;;57.63;33.85;;;23.00;30.40;;;;;;6227584;27;85637;-65
2022/01/10 04:04:56;;;;;;;55.67;32.38;;;23.00;30.40;;;;;;6215147;28;85187;-65
2022/01/10 04:07:57;;;;;;;60.15;36.28;;;23.00;30.50;;;;;;6214505;28;82900;-67
2022/01/10 04:10:57;;;;;;;64.28;36.38;;;23.10;30.40;;;;;;6231299;28;84175;-66
2022/01/10 04:13:58;;;;;;;59.60;35.38;;;23.10;30.60;;;;;;6228502;28;84965;-66
2022/01/10 04:17:01;;;;;;;64.57;36.22;;;23.10;30.50;;;;;;6219478;28;85218;-68
2022/01/10 04:20:02;;;;;;;59.80;35.22;;;23.10;30.80;;;;;;6222415;28;84014;-67
2022/01/10 04:23:02;;;;;;;63.40;36.60;;;23.10;30.80;;;;;;6228467;28;84554;-67
2022/01/10 04:26:03;;;;;;;62.15;36.28;;;23.10;30.90;;;;;;6227851;28;84152;-66
2022/01/10 04:29:07;;;;;;;60.53;35.55;;;23.10;30.90;;;;;;6221575;28;85899;-68
2022/01/10 04:32:11;;;;;;;67.95;39.47;;;23.20;30.80;;;;;;6214768;28;84548;-67
2022/01/10 04:35:11;;;;;;;64.40;37.20;;;23.20;30.50;;;;;;6218978;28;86146;-69
2022/01/10 04:38:12;;;;;;;64.60;39.55;;;23.10;30.30;;;;;;6224644;28;85882;-67
2022/01/10 04:41:13;;;;;;;68.82;39.97;;;23.20;30.00;;;;;;6215776;27;85899;-68
2022/01/10 04:44:13;;;;;;;72.25;39.88;;;23.20;30.00;;;;;;6228785;28;86746;-70
2022/01/10 04:47:15;;;;;;;70.38;41.42;;;23.20;30.40;;;;;;6244854;28;84295;-70
2022/01/10 04:53:16;;;;;;;70.32;41.85;;;23.20;29.60;;;;;;6227527;28;84274;-68
2022/01/10 04:56:17;;;;;;;74.03;41.55;;;23.20;29.60;;;;;;6224299;27;86038;-68
2022/01/10 04:59:19;;;;;;;77.25;42.70;;;23.20;29.50;;;;;;6224428;28;85918;-69
2022/01/10 05:02:19;;;;;;;73.35;41.15;;;23.30;30.00;;;;;;6223867;28;83209;-70
2022/01/10 05:05:20;;;;;;;73.22;40.10;;;23.30;30.60;;;;;;6225364;28;83791;-66
2022/01/10 05:08:21;;;;;;;68.80;40.05;;;23.30;31.50;;;;;;6226759;27;85317;-67
2022/01/10 05:11:22;;;;;;;66.32;38.58;;;23.30;31.50;;;;;;6215816;28;85929;-68
2022/01/10 05:14:22;;;;;;;66.18;38.90;;;23.30;31.00;;;;;;6231806;27;85550;-68
2022/01/10 05:17:24;;;;;;;66.78;37.45;;;23.30;31.00;;;;;;6224161;28;84536;-68
2022/01/10 05:20:25;;;;;;;68.35;39.28;;;23.30;30.90;;;;;;6221228;28;86174;-68
2022/01/10 05:23:26;;;;;;;66.43;35.92;;;23.30;31.20;;;;;;6227044;28;85918;-68
2022/01/10 05:26:26;;;;;;;67.00;36.95;;;23.30;31.60;;;;;;6226104;28;84585;-67
2022/01/10 05:29:28;;;;;;;60.28;35.58;;;23.40;31.40;;;;;;6213856;28;85908;-67
2022/01/10 05:32:28;;;;;;;59.20;33.50;;;23.40;31.70;;;;;;6225773;28;86028;-67
2022/01/10 05:35:47;;;;;;;56.25;32.97;;;23.40;31.90;;;;;;6223206;28;85790;-69
2022/01/10 05:38:47;;;;;;;150.77;73.97;;;23.40;32.90;;;;;;6228428;28;85703;-69
2022/01/10 05:41:48;;;;;;;222.40;109.68;;;23.30;34.70;;;;;;6210517;28;85516;-68
2022/01/10 05:44:49;;;;;;;259.08;120.28;;;23.00;35.90;;;;;;6221239;28;85268;-68
2022/01/10 05:47:52;;;;;;;212.73;103.43;;;22.90;37.30;;;;;;6226568;28;85526;-67
2022/01/10 05:50:52;;;;;;;247.00;124.93;;;22.90;37.40;;;;;;6216897;28;88410;-67
2022/01/10 05:53:53;;;;;;;318.33;150.90;;;22.90;38.20;;;;;;6209896;28;88072;-67
2022/01/10 05:56:53;;;;;;;250.07;124.57;;;22.80;38.90;;;;;;6220414;27;86425;-65
2022/01/10 05:59:56;;;;;;;193.63;93.63;;;22.80;40.00;;;;;;6215587;28;87698;-66
2022/01/10 06:02:57;;;;;;;151.57;77.35;;;23.00;39.80;;;;;;6214087;27;88543;-67
2022/01/10 06:06:04;;;;;;;122.10;60.40;;;23.10;40.00;;;;;;6217514;28;86034;-67
2022/01/10 06:09:04;;;;;;;99.35;49.25;;;23.10;40.10;;;;;;6210567;28;86149;-65
2022/01/10 06:12:06;;;;;;;89.68;42.88;;;23.20;40.30;;;;;;6216592;28;89873;-66
2022/01/10 06:15:07;;;;;;;67.90;34.63;;;23.10;40.80;;;;;;6223908;28;85929;-64
2022/01/10 06:18:12;;;;;;;58.95;31.42;;;23.10;40.90;;;;;;6223459;28;86141;-65
2022/01/10 06:21:13;;;;;;;51.05;26.25;;;23.00;41.20;;;;;;6225551;28;85616;-63
2022/01/10 06:24:14;;;;;;;46.72;24.02;;;23.00;41.60;;;;;;6215439;28;85756;-65
2022/01/10 06:27:14;;;;;;;47.50;24.77;;;23.00;41.30;;;;;;6224291;28;83737;-62
2022/01/10 06:30:15;;;;;;;39.42;21.80;;;23.00;41.30;;;;;;6209686;28;85851;-64
2022/01/10 06:33:19;;;;;;;38.17;19.92;;;23.00;41.60;;;;;;6226802;28;86028;-64
2022/01/10 06:36:19;;;;;;;35.75;20.42;;;23.00;41.50;;;;;;6212571;28;85828;-66
2022/01/10 06:39:23;;;;;;;42.88;21.35;;;23.00;41.50;;;;;;6225665;28;85237;-66
2022/01/10 06:42:25;;;;;;;33.22;18.70;;;22.90;41.40;;;;;;6223913;28;84995;-63
2022/01/10 06:45:26;;;;;;;35.67;19.67;;;22.90;41.60;;;;;;6215429;28;86207;-72
2022/01/10 06:48:26;;;;;;;37.97;20.52;;;22.90;41.70;;;;;;6227101;28;86278;-65
2022/01/10 06:51:27;;;;;;;35.70;18.35;;;22.80;41.00;;;;;;6212815;28;84013;-67
2022/01/10 06:54:28;;;;;;;29.85;18.45;;;22.80;41.20;;;;;;6223107;27;86053;-66
2022/01/10 06:57:30;;;;;;;32.55;17.48;;;22.70;40.90;;;;;;6230577;28;84389;-67
2022/01/10 07:00:31;;;;;;;30.63;17.88;;;22.70;41.20;;;;;;6233979;28;85057;-66
2022/01/10 07:03:35;;;;;;;33.05;18.52;;;22.60;41.10;;;;;;6227709;28;85405;-67
2022/01/10 07:06:47;;;;;;;31.25;17.33;;;22.60;41.10;;;;;;6231022;28;85712;-66
2022/01/10 07:09:54;;;;;;;31.40;16.00;;;22.60;41.30;;;;;;6229265;28;85581;-67
2022/01/10 07:12:55;;;;;;;28.33;16.55;;;22.60;41.30;;;;;;6217273;28;85608;-67
2022/01/10 07:15:55;;;;;;;28.27;16.02;;;22.50;41.40;;;;;;6226775;28;85994;-66
2022/01/10 07:18:56;;;;;;;27.02;16.30;;;22.50;41.50;;;;;;6214382;28;85703;-64
2022/01/10 07:22:04;;;;;;;25.83;14.70;;;22.50;41.10;;;;;;6224172;28;85410;-66
2022/01/10 07:25:05;;;;;;;25.23;14.77;;;22.50;40.90;;;;;;6219718;28;85700;-66
2022/01/10 07:28:06;;;;;;;27.00;14.98;;;22.50;40.30;;;;;;6229894;28;84212;-67
2022/01/10 07:31:07;;;;;;;23.67;14.95;;;22.50;39.90;;;;;;6227333;27;83594;-67
2022/01/10 07:34:10;;;;;;;25.23;14.77;;;22.50;39.10;;;;;;6229534;28;83304;-67
2022/01/10 07:37:10;;;;;;;26.52;14.77;;;22.50;38.70;;;;;;6223535;28;83876;-68
2022/01/10 07:40:11;;;;;;;28.42;17.10;;;22.50;38.20;;;;;;6218878;28;83258;-67
2022/01/10 07:43:11;;;;;;;30.08;16.77;;;22.50;38.20;;;;;;6226837;28;84486;-66
2022/01/10 07:46:23;;;;;;;27.60;15.65;;;22.50;38.10;;;;;;6212546;28;86036;-66
2022/01/10 07:49:24;;;;;;;26.88;14.20;;;22.50;37.90;;;;;;6228095;28;82992;-66
2022/01/10 07:52:26;;;;;;;24.50;14.27;;;22.50;37.40;;;;;;6222362;28;84061;-69
2022/01/10 07:55:27;;;;;;;26.35;14.82;;;22.50;37.30;;;;;;6229536;28;87704;-69
2022/01/10 07:58:27;;;;;;;24.80;14.95;;;22.50;37.00;;;;;;6229124;28;83426;-70
2022/01/10 08:01:28;;;;;;;24.42;14.13;;;22.50;36.70;;;;;;6231149;28;83755;-70
2022/01/10 08:04:28;;;;;;;22.55;13.55;;;22.50;36.40;;;;;;6229484;28;84171;-70
2022/01/10 08:07:29;;;;;;;23.40;13.75;;;22.50;36.30;;;;;;6222908;28;83236;-68
2022/01/10 08:10:29;;;;;;;28.42;13.85;;;22.50;36.20;;;;;;6229679;28;83436;-69
2022/01/10 08:13:30;;;;;;;20.63;13.07;;;22.50;35.80;;;;;;6229890;28;83220;-68
2022/01/10 08:16:30;;;;;;;25.10;13.40;;;22.50;35.70;;;;;;6230409;28;84137;-70
2022/01/10 08:19:33;;;;;;;23.48;12.98;;;22.50;35.40;;;;;;6224479;28;83208;-68
2022/01/10 08:22:34;;;;;;;22.75;13.30;;;22.50;35.40;;;;;;6220838;28;83237;-69
2022/01/10 08:25:35;;;;;;;23.42;12.88;;;22.50;35.20;;;;;;6216899;28;83795;-69
2022/01/10 08:28:35;;;;;;;21.20;12.73;;;22.40;34.90;;;;;;6219476;28;83349;-69
2022/01/10 08:31:36;;;;;;;20.77;12.85;;;22.40;34.90;;;;;;6216106;28;83179;-69
2022/01/10 08:34:36;;;;;;;22.63;13.50;;;22.40;34.40;;;;;;6226345;28;90488;-69
2022/01/10 08:37:37;;;;;;;22.42;13.35;;;22.50;34.00;;;;;;6221565;28;83586;-66
2022/01/10 08:40:37;;;;;;;20.42;13.52;;;22.50;33.70;;;;;;6224911;28;83309;-68
2022/01/10 08:43:38;;;;;;;23.08;12.82;;;22.50;33.30;;;;;;6219967;28;83124;-67
2022/01/10 08:46:38;;;;;;;22.38;12.60;;;22.50;33.00;;;;;;6226590;28;84110;-67
2022/01/10 08:49:39;;;;;;;19.73;11.00;;;22.60;32.70;;;;;;6214339;28;83257;-66
2022/01/10 08:52:40;;;;;;;19.65;11.50;;;22.60;32.40;;;;;;6220070;28;82969;-66
2022/01/10 08:55:40;;;;;;;18.50;11.70;;;22.70;32.50;;;;;;6214733;28;83960;-64
2022/01/10 08:58:41;;;;;;;19.25;11.35;;;22.70;32.60;;;;;;6224851;28;84154;-66
2022/01/10 09:01:42;;;;;;;21.23;12.13;;;22.70;32.40;;;;;;6220259;28;90514;-67
2022/01/10 09:04:43;;;;;;;17.05;11.38;;;22.80;32.20;;;;;;6218320;27;84411;-66
2022/01/10 09:07:44;;;;;;;19.27;12.13;;;22.80;31.80;;;;;;6231477;28;83514;-68
2022/01/10 09:10:44;;;;;;;18.88;12.80;;;22.80;31.60;;;;;;6227979;28;83084;-67
2022/01/10 09:13:45;;;;;;;18.42;11.63;;;22.80;31.30;;;;;;6228716;28;83915;-69
2022/01/10 09:16:45;;;;;;;22.00;12.65;;;22.90;31.10;;;;;;6228884;28;83514;-68
2022/01/10 09:19:46;;;;;;;20.30;12.23;;;22.90;31.00;;;;;;6220970;28;83395;-67
2022/01/10 09:22:46;;;;;;;17.30;11.90;;;22.90;30.80;;;;;;6225343;28;84066;-66
2022/01/10 09:25:47;;;;;;;22.83;11.75;;;22.90;30.60;;;;;;6227143;28;83021;-68
2022/01/10 09:28:47;;;;;;;18.15;11.75;;;23.00;30.60;;;;;;6222388;28;83109;-66
2022/01/10 09:31:48;;;;;;;21.95;12.65;;;22.90;30.40;;;;;;6229453;28;84272;-66
2022/01/10 09:34:48;;;;;;;23.45;13.40;;;23.00;30.40;;;;;;6226715;27;83110;-67
2022/01/10 09:37:49;;;;;;;21.40;12.60;;;23.00;30.40;;;;;;6211878;28;85015;-68
2022/01/10 09:40:49;;;;;;;20.00;11.88;;;23.00;30.30;;;;;;6222748;28;83865;-70
2022/01/10 09:43:50;;;;;;;18.55;12.32;;;23.00;30.10;;;;;;6220520;28;84586;-64
2022/01/10 09:46:50;;;;;;;21.48;12.27;;;23.00;30.10;;;;;;6229625;28;83362;-65
2022/01/10 09:49:51;;;;;;;20.95;12.73;;;23.00;30.20;;;;;;6221877;28;83257;-67
2022/01/10 09:52:51;;;;;;;22.35;12.07;;;23.00;30.20;;;;;;6215362;28;83715;-65
2022/01/10 09:55:52;;;;;;;19.63;12.23;;;23.00;31.00;;;;;;6226758;28;83075;-64
2022/01/10 09:58:53;;;;;;;23.80;12.38;;;23.00;31.40;;;;;;6229058;28;83293;-65
2022/01/10 10:01:54;;;;;;;19.63;12.20;;;23.00;31.70;;;;;;6224652;28;83218;-65
2022/01/10 10:04:54;;;;;;;17.05;11.43;;;23.00;31.80;;;;;;6227099;28;83526;-65
2022/01/10 10:07:55;;;;;;;19.08;10.95;;;23.00;31.90;;;;;;6226581;28;82899;-68
2022/01/10 10:10:55;;;;;;;21.50;12.00;;;23.00;31.80;;;;;;6229792;28;82939;-67
2022/01/10 10:13:57;;;;;;;15.70;10.27;;;23.00;32.40;;;;;;6228039;28;83247;-66
2022/01/10 10:16:58;;;;;;;19.35;11.30;;;23.00;31.80;;;;;;6225743;28;83094;-64
2022/01/10 10:19:58;;;;;;;19.80;11.35;;;23.00;31.70;;;;;;6231381;27;83287;-64
2022/01/10 10:22:59;;;;;;;19.58;11.57;;;23.00;31.70;;;;;;6223640;27;83199;-64
2022/01/10 10:25:59;;;;;;;17.92;10.70;;;23.00;31.70;;;;;;6213420;28;84146;-65
2022/01/10 10:29:00;;;;;;;17.60;11.05;;;22.90;32.10;;;;;;6221737;28;85141;-65
2022/01/10 10:32:02;;;;;;;20.35;11.18;;;22.90;32.10;;;;;;6220403;28;83413;-64
2022/01/10 10:35:03;;;;;;;18.23;10.85;;;22.90;32.20;;;;;;6230087;28;84269;-64
2022/01/10 10:38:03;;;;;;;17.45;10.25;;;22.80;32.20;;;;;;6222877;28;83600;-64
2022/01/10 10:41:04;;;;;;;18.00;10.27;;;22.80;32.10;;;;;;6231256;28;84189;-63
2022/01/10 10:44:04;;;;;;;18.77;11.13;;;22.80;32.10;;;;;;6232918;28;83750;-65
2022/01/10 10:47:05;;;;;;;14.77;9.13;;;22.80;32.20;;;;;;6232156;28;82916;-65
2022/01/10 10:50:06;;;;;;;15.13;8.68;;;22.80;32.40;;;;;;6233287;28;82951;-65
2022/01/10 10:53:09;;;;;;;17.95;10.40;;;22.70;32.50;;;;;;6234842;28;80771;-65
2022/01/10 10:56:09;;;;;;;15.68;9.70;;;22.70;32.50;;;;;;6229699;28;83194;-64
2022/01/10 10:59:11;;;;;;;16.83;9.15;;;22.60;32.70;;;;;;6225855;28;83416;-64
2022/01/10 11:02:11;;;;;;;16.48;9.63;;;22.70;32.90;;;;;;6234013;28;80998;-65
2022/01/10 11:05:12;;;;;;;13.43;8.60;;;22.60;33.10;;;;;;6222526;28;80527;-66
2022/01/10 11:08:13;;;;;;;13.30;8.30;;;22.60;33.40;;;;;;6232654;28;81255;-66
2022/01/10 11:11:13;;;;;;;13.30;8.52;;;22.60;33.30;;;;;;6233700;27;80360;-65
2022/01/10 11:14:14;;;;;;;14.75;9.15;;;22.60;33.20;;;;;;6221812;28;81618;-64
2022/01/10 11:17:15;;;;;;;16.13;8.75;;;22.60;33.40;;;;;;6230680;28;80333;-66
2022/01/10 11:20:16;;;;;;;13.20;8.20;;;22.60;33.50;;;;;;6227559;28;80459;-66
2022/01/10 11:23:17;;;;;;;16.30;9.10;;;22.60;33.30;;;;;;6229332;28;82010;-65
2022/01/10 11:26:17;;;;;;;13.63;7.80;;;22.60;33.30;;;;;;6235690;28;80732;-63
2022/01/10 11:29:18;;;;;;;12.63;8.65;;;22.60;33.40;;;;;;6234551;28;80518;-63
2022/01/10 11:32:19;;;;;;;15.65;9.30;;;22.60;33.40;;;;;;6219733;28;80953;-64
2022/01/10 11:35:19;;;;;;;16.33;8.98;;;22.60;33.50;;;;;;6216761;28;81740;-62
2022/01/10 11:38:20;;;;;;;13.43;8.50;;;22.50;33.60;;;;;;6225788;28;80729;-63
2022/01/10 11:41:20;;;;;;;14.50;8.38;;;22.50;33.70;;;;;;6231801;28;80588;-65
2022/01/10 11:44:22;;;;;;;13.52;8.40;;;22.50;33.80;;;;;;6226744;28;80663;-63
2022/01/10 11:47:23;;;;;;;12.57;8.80;;;22.50;33.60;;;;;;6223206;28;80718;-65
2022/01/10 11:50:23;;;;;;;20.05;8.95;;;22.50;34.10;;;;;;6228282;28;81018;-64
2022/01/10 11:53:24;;;;;;;19.23;11.02;;;22.50;34.40;;;;;;6233284;28;79999;-67
2022/01/10 11:56:24;;;;;;;26.08;12.90;;;22.50;35.00;;;;;;6229064;28;83559;-67
2022/01/10 11:59:25;;;;;;;28.10;11.70;;;22.60;36.10;;;;;;6221861;28;87496;-67
2022/01/10 12:02:25;;;;;;;27.25;12.10;;;22.60;36.80;;;;;;6223630;28;83334;-66
2022/01/10 12:05:26;;;;;;;30.33;12.18;;;22.50;37.30;;;;;;6229834;28;83999;-65
2022/01/10 12:08:27;;;;;;;24.95;11.32;;;22.50;37.90;;;;;;6227092;28;83978;-64
2022/01/10 12:11:28;;;;;;;22.58;10.60;;;22.60;38.00;;;;;;6212850;28;84491;-67
2022/01/10 12:14:29;;;;;;;21.48;9.65;;;22.50;38.00;;;;;;6227592;28;83444;-67
2022/01/10 12:17:33;;;;;;;14.40;8.70;;;22.50;38.00;;;;;;6232038;28;83999;-67
2022/01/10 12:20:34;;;;;;;15.93;8.20;;;22.50;37.80;;;;;;6229633;28;80515;-64
2022/01/10 12:23:34;;;;;;;15.50;8.95;;;22.60;37.50;;;;;;6224284;28;80525;-66
2022/01/10 12:26:35;;;;;;;13.07;8.65;;;22.60;36.60;;;;;;6227110;28;80526;-65
2022/01/10 12:29:35;;;;;;;13.60;8.10;;;22.60;36.20;;;;;;6229344;27;80716;-66
2022/01/10 12:32:38;;;;;;;13.15;8.45;;;22.60;36.00;;;;;;6231340;28;81683;-64
2022/01/10 12:35:38;;;;;;;12.93;8.23;;;22.60;35.90;;;;;;6228970;28;81628;-66
2022/01/10 12:38:40;;;;;;;14.43;9.15;;;22.70;36.10;;;;;;6217827;28;80589;-64
2022/01/10 12:41:40;;;;;;;15.18;9.13;;;22.70;36.70;;;;;;6215358;28;80561;-65
2022/01/10 12:44:41;;;;;;;12.82;8.48;;;22.70;37.40;;;;;;6231277;28;81058;-65
2022/01/10 12:47:41;;;;;;;16.55;9.55;;;22.80;38.40;;;;;;6228343;28;80589;-66
2022/01/10 12:50:42;;;;;;;15.27;9.65;;;22.80;39.00;;;;;;6214858;28;83437;-66
2022/01/10 12:53:47;;;;;;;14.05;8.90;;;22.70;40.20;;;;;;6214309;28;83444;-67
2022/01/10 12:56:48;;;;;;;17.00;9.70;;;22.80;40.40;;;;;;6234968;27;81606;-65
2022/01/10 12:59:48;;;;;;;16.08;8.40;;;22.80;40.40;;;;;;6232318;28;80300;-66
2022/01/10 13:02:49;;;;;;;15.18;8.95;;;22.80;40.50;;;;;;6223205;28;81065;-67
2022/01/10 13:05:50;;;;;;;12.50;8.35;;;22.80;40.60;;;;;;6229962;27;81396;-64
2022/01/10 13:08:50;;;;;;;13.50;8.25;;;22.80;40.70;;;;;;6232606;27;80558;-65
2022/01/10 13:12:01;;;;;;;14.10;9.45;;;22.80;40.70;;;;;;6230025;28;81897;-64
2022/01/10 13:15:02;;;;;;;11.85;7.85;;;22.80;40.90;;;;;;6222682;28;80872;-68
2022/01/10 13:18:03;;;;;;;16.27;9.18;;;22.80;41.10;;;;;;6223551;28;80955;-70
2022/01/10 13:21:03;;;;;;;13.73;9.25;;;22.90;41.10;;;;;;6230429;28;81916;-69
2022/01/10 13:24:04;;;;;;;18.23;10.13;;;22.80;41.20;;;;;;6232029;28;80495;-69
2022/01/10 13:27:05;;;;;;;15.82;9.32;;;22.90;41.40;;;;;;6229844;28;82908;-69
2022/01/10 13:30:05;;;;;;;16.13;10.38;;;22.90;41.60;;;;;;6231995;28;83464;-68
2022/01/10 13:33:08;;;;;;;15.68;10.07;;;22.90;41.70;;;;;;6217047;28;83421;-68
2022/01/10 13:36:09;;;;;;;15.77;9.73;;;22.90;41.80;;;;;;6226923;28;84596;-69
2022/01/10 13:39:09;;;;;;;17.80;10.13;;;22.90;41.90;;;;;;6231894;28;83668;-70
2022/01/10 13:42:10;;;;;;;15.10;9.55;;;22.90;41.90;;;;;;6210395;28;84337;-68
2022/01/10 13:45:10;;;;;;;15.57;10.27;;;22.90;41.60;;;;;;6221338;28;82845;-69
2022/01/10 13:48:11;;;;;;;14.43;9.82;;;22.90;41.90;;;;;;6227266;28;83093;-71
2022/01/10 13:51:12;;;;;;;15.43;9.20;;;22.90;41.80;;;;;;6220389;27;83500;-70
2022/01/10 13:54:13;;;;;;;13.27;8.40;;;23.00;41.70;;;;;;6227655;28;80596;-69
2022/01/10 13:57:13;;;;;;;15.32;9.20;;;23.00;41.60;;;;;;6228594;28;81633;-70
2022/01/10 14:00:14;;;;;;;13.38;8.45;;;22.90;41.50;;;;;;6229693;28;81671;-68
2022/01/10 14:03:14;;;;;;;14.13;8.35;;;22.90;41.30;;;;;;6222899;28;81819;-74
2022/01/10 14:06:15;;;;;;;14.13;9.80;;;23.00;41.40;;;;;;6214004;28;80642;-67
2022/01/10 14:09:15;;;;;;;14.32;8.40;;;22.90;41.10;;;;;;6215899;28;80349;-67
2022/01/10 14:12:16;;;;;;;12.93;8.98;;;22.90;41.20;;;;;;6218145;28;80724;-64
2022/01/10 14:15:16;;;;;;;13.57;8.88;;;22.90;41.20;;;;;;6230581;28;81374;-64
2022/01/10 14:18:17;;;;;;;15.88;9.52;;;22.80;40.80;;;;;;6224695;28;81473;-64
2022/01/10 14:21:17;;;;;;;15.00;9.65;;;22.80;40.50;;;;;;6231294;28;81377;-68
2022/01/10 14:24:19;;;;;;;13.38;8.25;;;22.70;40.70;;;;;;6230489;28;80580;-67
2022/01/10 14:27:20;;;;;;;14.38;9.05;;;22.70;42.10;;;;;;6230219;28;80947;-67
2022/01/10 14:30:20;;;;;;;13.60;8.77;;;22.70;42.40;;;;;;6215461;28;81236;-68
2022/01/10 14:33:23;;;;;;;14.57;9.38;;;22.80;43.10;;;;;;6223899;28;80706;-68
2022/01/10 14:36:23;;;;;;;13.45;8.98;;;22.80;43.90;;;;;;6220270;27;81541;-68
2022/01/10 14:39:24;;;;;;;14.55;8.60;;;22.70;43.50;;;;;;6217915;28;82596;-68
2022/01/10 14:42:29;;;;;;;14.10;8.20;;;22.70;43.80;;;;;;6216706;27;80442;-68
2022/01/10 14:45:30;;;;;;;12.73;8.20;;;22.70;43.90;;;;;;6230853;28;81405;-66
2022/01/10 14:48:30;;;;;;;15.48;8.70;;;22.70;43.60;;;;;;6226215;28;81628;-67
2022/01/10 14:51:31;;;;;;;15.05;9.27;;;22.70;43.60;;;;;;6225686;28;83823;-72
2022/01/10 14:54:31;;;;;;;15.93;10.35;;;22.70;43.50;;;;;;6219697;28;80416;-68
2022/01/10 14:57:32;;;;;;;13.75;8.95;;;22.60;43.10;;;;;;6230183;28;83066;-64
2022/01/10 15:00:33;;;;;;;12.52;8.25;;;22.60;44.50;;;;;;6236832;28;84108;-67
2022/01/10 15:03:34;;;;;;;17.70;8.52;;;22.60;45.40;;;;;;6220444;28;80563;-66
2022/01/10 15:06:34;;;;;;;13.98;8.95;;;22.70;46.10;;;;;;6224644;28;81044;-68
2022/01/10 15:09:35;;;;;;;15.38;8.70;;;22.70;46.60;;;;;;6225960;28;80423;-69
2022/01/10 15:12:35;;;;;;;14.70;8.90;;;22.60;46.70;;;;;;6231643;28;80545;-68
2022/01/10 15:15:36;;;;;;;15.48;9.25;;;22.60;47.90;;;;;;6220250;28;80611;-70
2022/01/10 15:18:36;;;;;;;16.23;8.45;;;22.70;48.30;;;;;;6230398;28;80659;-70
2022/01/10 15:21:42;;;;;;;14.15;8.82;;;22.70;48.50;;;;;;6217861;28;82060;-67
2022/01/10 15:24:43;;;;;;;15.77;8.97;;;22.60;48.20;;;;;;6229578;28;81963;-69
2022/01/10 15:27:43;;;;;;;12.63;8.63;;;22.60;48.70;;;;;;6231389;27;80728;-64
2022/01/10 15:30:44;;;;;;;11.57;7.72;;;22.60;48.60;;;;;;6233013;28;80520;-65
2022/01/10 15:33:44;;;;;;;13.43;8.70;;;22.70;48.90;;;;;;6229184;28;82243;-66